Time;durP1;ratioP1;P1;durP2;ratioP2;P2;SDS_P1;SDS_P2;PMS_P1;PMS_P2;Temp;Humidity;BMP_temperature;BMP_pressure;BME280_temperature;BME280_humidity;BME280_pressure;Samples;Min_cycle;Max_cycle;Signal;HPM_P1;HPM_P2
2023/01/24 00:00:43;;;;;;;2.78;2.58;;;17.70;51.70;;;;;;5114236;28;20184;-58
2023/01/24 00:03:12;;;;;;;3.67;3.38;;;17.70;51.70;;;;;;5114542;28;20642;-57
2023/01/24 00:05:41;;;;;;;3.20;3.00;;;17.70;51.70;;;;;;5113246;28;20215;-58
2023/01/24 00:08:07;;;;;;;3.20;3.00;;;17.70;51.70;;;;;;5114458;28;20169;-57
2023/01/24 00:10:33;;;;;;;3.28;3.08;;;17.70;51.70;;;;;;5114101;28;20523;-58
2023/01/24 00:12:58;;;;;;;3.20;2.92;;;17.60;51.70;;;;;;5113620;28;20177;-57
2023/01/24 00:15:24;;;;;;;3.33;3.03;;;17.60;51.70;;;;;;5114226;28;20181;-57
2023/01/24 00:17:50;;;;;;;3.20;3.00;;;17.60;51.70;;;;;;5078019;28;1040221;-57
2023/01/24 00:20:15;;;;;;;2.83;2.63;;;17.60;51.70;;;;;;5114803;28;20177;-57
2023/01/24 00:22:41;;;;;;;2.97;2.78;;;17.60;51.70;;;;;;5114888;28;20200;-56
2023/01/24 00:25:07;;;;;;;3.97;3.38;;;17.50;51.70;;;;;;5114159;28;20291;-56
2023/01/24 00:27:34;;;;;;;3.42;3.22;;;17.50;51.70;;;;;;5114995;28;20657;-56
2023/01/24 00:29:59;;;;;;;3.10;2.90;;;17.50;51.70;;;;;;5115071;28;20165;-57
2023/01/24 00:32:25;;;;;;;2.90;2.70;;;17.50;51.70;;;;;;5114254;28;20222;-57
2023/01/24 00:34:50;;;;;;;3.17;2.97;;;17.50;51.70;;;;;;5114465;28;20540;-57
2023/01/24 00:37:16;;;;;;;3.22;3.03;;;17.40;51.70;;;;;;5114721;28;20632;-58
2023/01/24 00:39:41;;;;;;;3.03;2.83;;;17.50;51.70;;;;;;5113721;28;20184;-57
2023/01/24 00:42:07;;;;;;;3.63;3.38;;;17.40;51.80;;;;;;5114940;28;20184;-57
2023/01/24 00:44:33;;;;;;;3.33;3.10;;;17.40;51.80;;;;;;5114482;28;20204;-57
2023/01/24 00:46:58;;;;;;;3.35;3.15;;;17.40;51.70;;;;;;5113820;28;20177;-57
2023/01/24 00:49:24;;;;;;;3.67;3.22;;;17.40;51.60;;;;;;5114522;28;20217;-55
2023/01/24 00:51:49;;;;;;;3.67;3.38;;;17.30;51.60;;;;;;5114198;28;20263;-55
2023/01/24 00:54:15;;;;;;;3.40;3.10;;;17.30;51.60;;;;;;5113658;28;20176;-57
2023/01/24 00:56:40;;;;;;;3.30;3.05;;;17.30;51.60;;;;;;5114255;28;20525;-52
2023/01/24 00:59:06;;;;;;;3.10;2.90;;;17.30;51.60;;;;;;5114375;28;20631;-57
2023/01/24 01:01:31;;;;;;;3.08;2.88;;;17.30;51.70;;;;;;5113472;28;20173;-57
2023/01/24 01:03:57;;;;;;;3.05;2.85;;;17.30;51.60;;;;;;5114201;28;20170;-58
2023/01/24 01:06:23;;;;;;;3.40;3.20;;;17.20;51.50;;;;;;5114294;28;20213;-58
2023/01/24 01:08:48;;;;;;;3.20;3.00;;;17.20;51.60;;;;;;5113100;28;20176;-57
2023/01/24 01:11:14;;;;;;;3.42;3.13;;;17.20;51.50;;;;;;5113847;28;20183;-57
2023/01/24 01:13:39;;;;;;;3.67;3.38;;;17.20;51.50;;;;;;5113866;28;20256;-57
2023/01/24 01:16:10;;;;;;;3.63;3.33;;;17.10;51.40;;;;;;5113278;28;20694;-57
2023/01/24 01:18:36;;;;;;;3.17;2.97;;;17.20;51.50;;;;;;5113768;28;20177;-58
2023/01/24 01:21:02;;;;;;;3.30;3.10;;;17.20;51.50;;;;;;5113983;28;20242;-56
2023/01/24 01:23:28;;;;;;;3.72;3.10;;;17.10;51.60;;;;;;5113087;28;20242;-56
2023/01/24 01:25:53;;;;;;;3.28;3.08;;;17.10;51.50;;;;;;5113479;28;20216;-56
2023/01/24 01:28:19;;;;;;;3.30;3.10;;;17.10;51.50;;;;;;5113004;28;20176;-57
2023/01/24 01:30:51;;;;;;;3.20;3.00;;;17.10;51.60;;;;;;5113513;28;20211;-56
2023/01/24 01:33:16;;;;;;;3.28;2.97;;;17.10;51.60;;;;;;5113779;28;20635;-57
2023/01/24 01:35:42;;;;;;;2.97;2.78;;;17.10;51.50;;;;;;5112773;28;20180;-56
2023/01/24 01:38:07;;;;;;;3.42;3.22;;;17.10;51.50;;;;;;5113801;28;20181;-57
2023/01/24 01:40:33;;;;;;;3.13;2.92;;;17.10;51.60;;;;;;5113769;28;20174;-57
2023/01/24 01:42:58;;;;;;;3.30;3.08;;;17.00;51.50;;;;;;5112966;28;20173;-57
2023/01/24 01:45:32;;;;;;;3.53;3.22;;;17.00;51.50;;;;;;5113370;28;20675;-57
2023/01/24 01:47:58;;;;;;;3.70;3.40;;;17.00;51.50;;;;;;5113453;28;20188;-56
2023/01/24 01:50:28;;;;;;;3.38;3.17;;;17.00;51.50;;;;;;5094642;28;20659;-56
2023/01/24 01:52:54;;;;;;;3.53;3.22;;;17.00;51.60;;;;;;5095312;28;20638;-57
2023/01/24 01:55:21;;;;;;;3.42;3.22;;;17.00;51.50;;;;;;5113650;28;20209;-56
2023/01/24 01:57:47;;;;;;;3.42;3.20;;;17.00;51.50;;;;;;5094479;28;20264;-56
2023/01/24 02:00:14;;;;;;;3.30;3.10;;;17.00;51.60;;;;;;5113421;28;20176;-57
2023/01/24 02:02:43;;;;;;;3.03;2.83;;;16.90;51.50;;;;;;5113114;28;20176;-57
2023/01/24 02:05:10;;;;;;;3.17;2.97;;;16.90;51.50;;;;;;5112400;28;20236;-58
2023/01/24 02:07:43;;;;;;;3.20;3.00;;;16.90;51.40;;;;;;5078262;28;20180;-56
2023/01/24 02:10:09;;;;;;;3.30;3.05;;;16.90;51.40;;;;;;5095289;28;20213;-57
2023/01/24 02:12:39;;;;;;;3.58;3.28;;;16.90;51.40;;;;;;5112291;28;20571;-57
2023/01/24 02:17:52;;;;;;;3.58;3.28;;;16.90;51.50;;;;;;5112098;28;20235;-56
2023/01/24 02:20:34;;;;;;;3.45;3.25;;;16.90;51.40;;;;;;5113326;28;20165;-57
2023/01/24 02:23:06;;;;;;;3.60;3.30;;;16.90;51.50;;;;;;5115187;28;20177;-56
2023/01/24 02:25:36;;;;;;;3.58;3.28;;;16.80;51.40;;;;;;5098767;28;20197;-57
2023/01/24 02:28:02;;;;;;;3.85;3.55;;;16.80;51.40;;;;;;5117366;28;20620;-56
2023/01/24 02:30:28;;;;;;;3.55;3.25;;;16.80;51.40;;;;;;5117475;28;20197;-56
2023/01/24 02:32:53;;;;;;;2.95;2.75;;;16.80;51.50;;;;;;5116342;28;20562;-57
2023/01/24 02:35:24;;;;;;;3.80;3.50;;;16.80;51.40;;;;;;5117297;28;20165;-57
2023/01/24 02:37:50;;;;;;;3.58;3.28;;;16.80;51.40;;;;;;5116880;28;20196;-58
2023/01/24 02:40:15;;;;;;;3.47;3.17;;;16.80;51.50;;;;;;5116461;28;20205;-58
2023/01/24 02:42:41;;;;;;;3.85;3.55;;;16.80;51.40;;;;;;5098417;28;20165;-57
2023/01/24 02:45:10;;;;;;;3.78;3.47;;;16.70;51.30;;;;;;5117054;28;20205;-56
2023/01/24 02:47:38;;;;;;;3.65;3.38;;;16.70;51.30;;;;;;5097965;28;20181;-57
2023/01/24 02:50:04;;;;;;;4.00;3.70;;;16.70;51.30;;;;;;5098684;28;20181;-56
2023/01/24 02:55:14;;;;;;;3.50;3.30;;;16.70;51.30;;;;;;5116922;28;20221;-55
2023/01/24 03:00:23;;;;;;;3.85;3.55;;;16.70;51.40;;;;;;5116064;28;20603;-57
2023/01/24 03:02:49;;;;;;;3.42;3.22;;;16.70;51.40;;;;;;5116455;28;20668;-56
2023/01/24 03:05:14;;;;;;;3.83;3.53;;;16.70;51.40;;;;;;5116514;28;20675;-57
2023/01/24 03:07:44;;;;;;;3.83;3.53;;;16.70;51.40;;;;;;5115408;28;20169;-57
2023/01/24 03:10:10;;;;;;;4.10;3.75;;;16.70;51.40;;;;;;5116705;28;20173;-56
2023/01/24 03:34:32;;;;;;;4.10;3.80;;;16.60;51.20;;;;;;5115813;28;20632;-58
2023/01/24 03:36:58;;;;;;;4.00;3.70;;;16.50;51.20;;;;;;5115069;28;20169;-57
2023/01/24 03:42:08;;;;;;;4.40;4.00;;;16.50;51.10;;;;;;5115286;28;20542;-56
2023/01/24 03:44:33;;;;;;;4.15;3.85;;;16.60;51.20;;;;;;5115599;28;20647;-57
2023/01/24 03:46:59;;;;;;;4.82;4.43;;;16.50;51.30;;;;;;5115785;28;20181;-56
2023/01/24 03:54:52;;;;;;;4.43;4.10;;;16.50;51.20;;;;;;5115392;28;20607;-55
2023/01/24 03:57:18;;;;;;;3.88;3.60;;;16.50;51.30;;;;;;5114848;28;20173;-54
2023/01/24 03:59:43;;;;;;;3.78;3.47;;;16.50;51.30;;;;;;5115095;28;20256;-56
2023/01/24 04:02:09;;;;;;;3.92;3.63;;;16.40;51.30;;;;;;5115742;28;20184;-56
2023/01/24 04:07:19;;;;;;;4.13;3.75;;;16.40;51.30;;;;;;5115421;28;20188;-58
2023/01/24 04:09:44;;;;;;;4.45;4.15;;;16.40;51.30;;;;;;5115189;28;20169;-57
2023/01/24 04:12:10;;;;;;;4.78;4.40;;;16.40;51.30;;;;;;5114628;28;20179;-57
2023/01/24 04:14:35;;;;;;;3.72;3.50;;;16.40;51.30;;;;;;5114947;28;20175;-57
2023/01/24 04:17:01;;;;;;;4.57;4.22;;;16.40;51.30;;;;;;5114240;28;20224;-57
2023/01/24 04:19:26;;;;;;;4.63;4.28;;;16.40;51.20;;;;;;5115371;28;20219;-56
2023/01/24 04:21:52;;;;;;;4.05;3.75;;;16.40;51.30;;;;;;5114804;28;20230;-54
2023/01/24 04:24:17;;;;;;;4.53;4.22;;;16.40;51.40;;;;;;5114420;28;20173;-56
2023/01/24 04:26:43;;;;;;;4.13;3.83;;;16.40;51.30;;;;;;5114608;28;20177;-54
2023/01/24 04:29:09;;;;;;;4.32;4.03;;;16.40;51.40;;;;;;5114886;28;20175;-56
2023/01/24 04:31:35;;;;;;;4.20;3.90;;;16.30;51.30;;;;;;5114038;28;20263;-60
2023/01/24 04:34:03;;;;;;;4.75;4.38;;;16.30;51.30;;;;;;5114923;28;20169;-59
2023/01/24 04:36:28;;;;;;;4.85;4.55;;;16.40;51.40;;;;;;5114680;28;20653;-58
2023/01/24 04:38:55;;;;;;;4.32;4.03;;;16.40;51.40;;;;;;5113703;28;20177;-58
2023/01/24 04:41:20;;;;;;;5.07;4.68;;;16.30;51.40;;;;;;5114647;28;20272;-60
2023/01/24 04:43:46;;;;;;;4.20;3.90;;;16.30;51.40;;;;;;5114581;28;20268;-58
2023/01/24 04:46:11;;;;;;;4.10;3.80;;;16.30;51.40;;;;;;5113068;28;20693;-58
2023/01/24 04:48:37;;;;;;;4.53;4.22;;;16.30;51.40;;;;;;5114156;28;20177;-59
2023/01/24 04:51:02;;;;;;;4.75;4.43;;;16.30;51.40;;;;;;5114485;28;20268;-57
2023/01/24 04:53:29;;;;;;;4.78;4.38;;;16.30;51.30;;;;;;5113752;28;20298;-57
2023/01/24 04:55:59;;;;;;;4.85;4.45;;;16.20;51.30;;;;;;5114131;28;20197;-55
2023/01/24 04:58:24;;;;;;;4.78;4.43;;;16.30;51.30;;;;;;5114376;28;20538;-58
2023/01/24 05:00:50;;;;;;;4.75;4.35;;;16.30;51.40;;;;;;5113482;28;20181;-57
2023/01/24 05:03:15;;;;;;;4.63;4.32;;;16.20;51.30;;;;;;5114531;28;20169;-59
2023/01/24 05:05:41;;;;;;;4.38;4.07;;;16.30;51.40;;;;;;5113885;28;20573;-59
2023/01/24 05:08:06;;;;;;;4.47;4.18;;;16.20;51.30;;;;;;5113486;28;20222;-56
2023/01/24 05:10:32;;;;;;;5.25;4.85;;;16.20;51.40;;;;;;5113943;28;20223;-58
2023/01/24 05:12:57;;;;;;;5.22;4.85;;;16.20;51.30;;;;;;5114229;28;20218;-58
2023/01/24 05:15:23;;;;;;;5.13;4.72;;;16.20;52.00;;;;;;5113549;28;20218;-57
2023/01/24 05:17:48;;;;;;;4.60;4.25;;;16.20;51.40;;;;;;5113595;28;20270;-58
2023/01/24 05:20:14;;;;;;;5.88;5.45;;;16.20;51.40;;;;;;5113987;28;20181;-58
2023/01/24 05:22:40;;;;;;;4.68;4.38;;;16.20;51.40;;;;;;5112911;28;20172;-55
2023/01/24 05:25:06;;;;;;;5.13;4.72;;;16.20;51.40;;;;;;5113745;28;20232;-56
2023/01/24 05:27:31;;;;;;;5.40;5.00;;;16.10;51.50;;;;;;5112732;28;20184;-56
2023/01/24 05:29:57;;;;;;;4.93;4.53;;;16.10;51.40;;;;;;5113951;28;20169;-56
2023/01/24 05:32:22;;;;;;;5.22;4.82;;;16.20;51.50;;;;;;5113703;28;20169;-58
2023/01/24 05:34:48;;;;;;;5.15;4.75;;;16.20;51.50;;;;;;5112573;28;20169;-58
2023/01/24 05:37:13;;;;;;;5.25;4.85;;;16.20;51.50;;;;;;5113699;28;20169;-59
2023/01/24 05:39:39;;;;;;;5.05;4.65;;;16.10;51.50;;;;;;5113233;28;20169;-58
2023/01/24 05:42:04;;;;;;;5.00;4.70;;;16.20;51.30;;;;;;5113094;28;20173;-58
2023/01/24 05:44:30;;;;;;;5.70;5.30;;;16.10;51.30;;;;;;5113720;28;20169;-58
2023/01/24 05:46:55;;;;;;;5.20;4.80;;;16.10;51.40;;;;;;5113214;28;20529;-58
2023/01/24 05:49:21;;;;;;;5.10;4.70;;;16.10;51.50;;;;;;5112710;28;20640;-58
2023/01/24 05:51:46;;;;;;;5.20;4.80;;;16.10;51.50;;;;;;5113057;28;20173;-57
2023/01/24 05:54:12;;;;;;;5.00;4.60;;;16.00;51.40;;;;;;5113398;28;20168;-56
2023/01/24 05:56:37;;;;;;;4.85;4.55;;;16.00;51.40;;;;;;5112550;28;20181;-58
2023/01/24 05:59:03;;;;;;;5.20;4.70;;;16.00;51.40;;;;;;5113529;28;20173;-55
2023/01/24 06:01:28;;;;;;;5.25;4.85;;;16.10;51.40;;;;;;5113491;28;20658;-58
2023/01/24 06:03:54;;;;;;;5.00;4.65;;;16.10;51.50;;;;;;5112695;28;20631;-58
2023/01/24 06:06:21;;;;;;;5.30;4.90;;;16.00;51.40;;;;;;5113227;28;20299;-58
2023/01/24 06:08:47;;;;;;;5.47;5.07;;;16.00;51.40;;;;;;5112976;28;20177;-58
2023/01/24 06:11:16;;;;;;;5.28;4.88;;;16.00;51.40;;;;;;5112447;28;20264;-57
2023/01/24 06:13:42;;;;;;;4.88;4.50;;;16.00;51.40;;;;;;5112693;28;20173;-58
2023/01/24 06:16:12;;;;;;;5.18;4.78;;;16.00;51.40;;;;;;5112939;28;20212;-58
2023/01/24 06:18:38;;;;;;;5.65;5.15;;;16.00;51.40;;;;;;5112343;28;20181;-58
2023/01/24 06:21:34;;;;;;;5.22;4.80;;;16.00;51.40;;;;;;5113160;28;20643;-56
2023/01/24 06:24:00;;;;;;;5.75;5.25;;;16.00;51.40;;;;;;5097740;28;20188;-61
2023/01/24 06:26:26;;;;;;;5.10;4.70;;;16.00;51.50;;;;;;5112956;28;20208;-69
2023/01/24 06:28:52;;;;;;;5.32;4.60;;;16.00;52.40;;;;;;5112789;28;20261;-66
2023/01/24 06:31:20;;;;;;;5.38;4.88;;;16.00;53.60;;;;;;5112471;28;20539;-71
2023/01/24 06:33:52;;;;;;;6.38;5.28;;;16.00;53.00;;;;;;5112323;28;20260;-71
2023/01/24 06:36:41;;;;;;;6.00;5.50;;;16.00;53.40;;;;;;5112927;28;20173;-70
2023/01/24 06:39:12;;;;;;;5.85;5.25;;;15.90;52.90;;;;;;5078686;28;20173;-70
2023/01/24 06:41:38;;;;;;;6.25;4.97;;;16.00;52.70;;;;;;5077723;28;20185;-70
2023/01/24 06:44:04;;;;;;;5.30;4.80;;;15.90;53.10;;;;;;5112746;28;20164;-69
2023/01/24 06:46:29;;;;;;;6.18;5.63;;;15.90;53.10;;;;;;5111920;28;20215;-62
2023/01/24 06:48:55;;;;;;;5.75;5.25;;;15.90;54.00;;;;;;5112688;28;20176;-62
2023/01/24 06:51:20;;;;;;;5.80;5.07;;;15.90;52.90;;;;;;5112949;28;20181;-62
2023/01/24 06:53:46;;;;;;;5.32;4.93;;;15.90;52.80;;;;;;5111896;28;20169;-61
2023/01/24 06:56:11;;;;;;;5.18;4.63;;;15.90;52.80;;;;;;5112840;28;20184;-61
2023/01/24 06:58:37;;;;;;;5.40;4.65;;;15.80;52.60;;;;;;5112544;28;20661;-62
2023/01/24 07:01:03;;;;;;;5.22;4.82;;;15.80;52.60;;;;;;5111978;28;20234;-62
2023/01/24 07:03:28;;;;;;;5.00;4.60;;;15.90;52.50;;;;;;5112975;28;20624;-62
2023/01/24 07:05:54;;;;;;;5.07;4.57;;;15.90;52.50;;;;;;5111656;28;20261;-62
2023/01/24 07:08:20;;;;;;;5.13;4.65;;;16.00;52.50;;;;;;5113059;28;20655;-61
2023/01/24 07:10:46;;;;;;;5.03;4.63;;;16.00;52.70;;;;;;5116290;28;20212;-62
2023/01/24 07:13:11;;;;;;;5.18;4.70;;;16.10;52.60;;;;;;5115722;28;20663;-62
2023/01/24 07:15:37;;;;;;;6.07;4.32;;;16.20;52.40;;;;;;5115928;28;20184;-62
2023/01/24 07:18:13;;;;;;;4.45;4.10;;;16.40;52.30;;;;;;5116141;28;20221;-62
2023/01/24 07:20:39;;;;;;;4.72;4.28;;;16.60;51.90;;;;;;5097674;28;20195;-62
2023/01/24 07:23:04;;;;;;;4.85;4.43;;;16.70;51.60;;;;;;5098168;28;20165;-62
2023/01/24 07:25:30;;;;;;;4.20;3.90;;;16.90;51.40;;;;;;5116212;28;20565;-61
2023/01/24 07:27:56;;;;;;;3.95;3.60;;;16.90;51.20;;;;;;5097093;28;20259;-62
2023/01/24 07:30:21;;;;;;;4.28;3.92;;;17.10;51.10;;;;;;5116240;28;20200;-62
2023/01/24 07:32:47;;;;;;;4.45;4.05;;;17.10;50.90;;;;;;5115862;28;20248;-62
2023/01/24 07:35:12;;;;;;;3.90;3.60;;;17.20;50.70;;;;;;5115262;28;20185;-61
2023/01/24 07:37:39;;;;;;;4.50;4.20;;;17.20;50.70;;;;;;5115770;28;20169;-62
2023/01/24 07:40:05;;;;;;;4.20;3.88;;;17.30;50.60;;;;;;5115691;28;20612;-62
2023/01/24 07:42:30;;;;;;;4.32;3.50;;;17.30;50.50;;;;;;5114851;28;20195;-62
2023/01/24 07:44:56;;;;;;;3.80;3.50;;;17.40;50.30;;;;;;5115860;28;20201;-62
2023/01/24 07:47:23;;;;;;;4.20;3.90;;;17.50;50.30;;;;;;5115652;28;20540;-62
2023/01/24 07:49:48;;;;;;;4.15;3.85;;;17.50;50.10;;;;;;5114789;28;20188;-62
2023/01/24 07:52:14;;;;;;;4.25;3.85;;;17.60;50.00;;;;;;5115766;28;20173;-62
2023/01/24 07:54:39;;;;;;;4.40;3.80;;;17.60;50.00;;;;;;5115450;28;20199;-62
2023/01/24 07:57:05;;;;;;;4.20;3.80;;;17.60;49.90;;;;;;5114759;28;20173;-61
2023/01/24 07:59:30;;;;;;;4.00;3.60;;;17.50;50.00;;;;;;5115431;28;20165;-62
2023/01/24 08:01:56;;;;;;;3.72;3.42;;;17.50;50.00;;;;;;5115608;28;20219;-62
2023/01/24 08:04:21;;;;;;;4.00;3.60;;;17.40;50.10;;;;;;5114749;28;20165;-62
2023/01/24 08:09:31;;;;;;;3.67;3.38;;;17.30;50.30;;;;;;5114451;28;20208;-61
2023/01/24 08:11:56;;;;;;;4.05;3.75;;;17.30;50.40;;;;;;5115398;28;20204;-62
2023/01/24 08:14:22;;;;;;;3.90;3.60;;;17.20;50.40;;;;;;5114959;28;20260;-62
2023/01/24 08:16:48;;;;;;;4.40;4.00;;;17.30;50.50;;;;;;5113828;28;20228;-62
2023/01/24 08:19:14;;;;;;;3.88;3.58;;;17.20;50.50;;;;;;5115050;28;20193;-62
2023/01/24 08:21:40;;;;;;;3.65;3.35;;;17.20;50.50;;;;;;5113997;28;20550;-62
2023/01/24 08:24:06;;;;;;;4.13;3.72;;;17.10;50.60;;;;;;5114333;28;20173;-61
2023/01/24 08:26:31;;;;;;;4.30;3.90;;;17.10;50.60;;;;;;5115151;28;20281;-62
2023/01/24 08:28:57;;;;;;;4.38;3.67;;;17.00;50.70;;;;;;5115036;28;20174;-62
2023/01/24 08:31:22;;;;;;;4.10;3.80;;;16.90;50.70;;;;;;5114354;28;20200;-63
2023/01/24 08:33:48;;;;;;;4.20;3.90;;;17.00;50.90;;;;;;5114703;28;20173;-62
2023/01/24 08:36:13;;;;;;;3.85;3.55;;;17.00;50.80;;;;;;5115052;28;20188;-62
2023/01/24 08:38:39;;;;;;;4.13;3.78;;;17.00;50.80;;;;;;5113824;28;20173;-63
2023/01/24 08:41:04;;;;;;;4.05;3.75;;;17.00;50.80;;;;;;5114797;28;20211;-62
2023/01/24 08:43:30;;;;;;;3.92;3.63;;;17.00;50.80;;;;;;5114543;28;20513;-62
2023/01/24 08:45:56;;;;;;;3.88;3.58;;;17.00;50.70;;;;;;5113904;28;20209;-62
2023/01/24 08:48:22;;;;;;;3.72;3.50;;;17.00;50.70;;;;;;5114461;28;20173;-62
2023/01/24 08:50:47;;;;;;;3.65;3.35;;;17.00;50.80;;;;;;5114337;28;20173;-62
2023/01/24 08:53:14;;;;;;;4.50;4.10;;;16.90;50.80;;;;;;5113811;28;20290;-61
2023/01/24 08:55:40;;;;;;;4.28;3.90;;;16.80;50.90;;;;;;5114026;28;20547;-62
2023/01/24 08:58:05;;;;;;;4.18;3.88;;;16.80;50.90;;;;;;5114293;28;20177;-62
2023/01/24 09:00:31;;;;;;;3.30;3.10;;;16.90;51.00;;;;;;5113448;28;20181;-62
2023/01/24 09:03:00;;;;;;;3.80;3.50;;;16.90;51.00;;;;;;5114445;28;20179;-62
2023/01/24 09:05:29;;;;;;;4.18;3.78;;;16.90;50.90;;;;;;5113465;28;20205;-62
2023/01/24 09:07:55;;;;;;;3.92;3.63;;;17.00;50.90;;;;;;5113752;28;20191;-62
2023/01/24 09:10:20;;;;;;;3.70;3.40;;;17.00;50.80;;;;;;5114418;28;20683;-62
2023/01/24 09:12:46;;;;;;;4.05;3.72;;;17.00;50.80;;;;;;5113227;28;20193;-62
2023/01/24 09:15:11;;;;;;;4.15;3.85;;;17.00;50.80;;;;;;5114159;28;20169;-62
2023/01/24 09:17:39;;;;;;;3.95;3.65;;;16.90;50.80;;;;;;5113679;28;20224;-62
2023/01/24 09:20:05;;;;;;;4.18;3.88;;;16.80;50.90;;;;;;5113306;28;20173;-62
2023/01/24 09:22:31;;;;;;;4.13;3.83;;;16.80;50.90;;;;;;5113575;28;20180;-61
2023/01/24 09:24:56;;;;;;;3.90;3.60;;;16.80;51.00;;;;;;5113715;28;20205;-61
2023/01/24 09:27:22;;;;;;;3.88;3.58;;;16.80;51.00;;;;;;5113374;28;20173;-62
2023/01/24 09:29:47;;;;;;;4.10;3.80;;;16.90;51.00;;;;;;5113692;28;20224;-61
2023/01/24 09:32:13;;;;;;;4.55;4.00;;;16.90;51.00;;;;;;5113580;28;20176;-62
2023/01/24 09:34:45;;;;;;;4.07;3.78;;;16.90;51.00;;;;;;5112856;28;20477;-62
2023/01/24 09:37:11;;;;;;;3.58;3.28;;;17.00;50.80;;;;;;5113726;28;20173;-61
2023/01/24 09:39:36;;;;;;;3.92;3.63;;;17.00;50.80;;;;;;5113515;28;20172;-62
2023/01/24 09:42:15;;;;;;;3.97;3.67;;;17.00;50.80;;;;;;5113056;28;20169;-62
2023/01/24 09:44:56;;;;;;;4.20;3.80;;;17.00;50.80;;;;;;5113141;28;20173;-62
2023/01/24 09:47:46;;;;;;;3.72;3.42;;;16.90;50.80;;;;;;5113520;28;20173;-62
2023/01/24 09:50:23;;;;;;;4.00;3.70;;;16.80;50.80;;;;;;5095689;28;20237;-62
2023/01/24 09:52:55;;;;;;;3.95;3.63;;;16.80;50.90;;;;;;5095302;28;20204;-62
2023/01/24 09:55:31;;;;;;;3.60;3.30;;;16.80;51.00;;;;;;5112664;28;20691;-62
2023/01/24 09:58:26;;;;;;;4.75;3.70;;;16.90;51.00;;;;;;5113243;28;20223;-62
2023/01/24 10:00:52;;;;;;;4.30;3.97;;;16.90;50.90;;;;;;5113135;28;20177;-62
2023/01/24 10:03:19;;;;;;;3.80;3.50;;;16.90;50.90;;;;;;5094782;28;20179;-62
2023/01/24 10:05:50;;;;;;;4.20;3.72;;;17.00;50.80;;;;;;5094820;28;20257;-62
2023/01/24 10:08:37;;;;;;;3.65;3.35;;;17.00;50.70;;;;;;5095090;28;20196;-62
2023/01/24 10:11:43;;;;;;;3.55;3.25;;;17.00;50.70;;;;;;5094760;28;20188;-62
2023/01/24 10:14:27;;;;;;;4.18;3.78;;;17.00;50.70;;;;;;5113298;28;20180;-62
2023/01/24 10:17:42;;;;;;;3.85;3.55;;;17.00;50.70;;;;;;5093785;28;20221;-63
2023/01/24 10:20:13;;;;;;;4.07;3.78;;;16.90;50.80;;;;;;5096840;28;20173;-62
2023/01/24 10:22:59;;;;;;;3.42;3.22;;;16.80;51.00;;;;;;5094883;28;20176;-62
2023/01/24 10:25:27;;;;;;;3.90;3.60;;;16.90;50.90;;;;;;5113248;28;20200;-62
2023/01/24 10:27:54;;;;;;;4.18;3.78;;;16.90;50.90;;;;;;5113034;28;20216;-62
2023/01/24 10:30:24;;;;;;;4.07;3.78;;;16.90;50.90;;;;;;5077789;28;20222;-62
2023/01/24 10:32:52;;;;;;;3.83;3.53;;;17.00;50.90;;;;;;5094726;28;20535;-63
2023/01/24 10:35:21;;;;;;;4.45;4.10;;;17.00;50.80;;;;;;5095002;28;20180;-62
2023/01/24 10:37:50;;;;;;;3.88;3.55;;;17.00;50.70;;;;;;5094088;28;20181;-62
2023/01/24 10:40:16;;;;;;;3.80;3.50;;;17.10;50.80;;;;;;5094814;28;20166;-62
2023/01/24 10:42:42;;;;;;;3.88;3.58;;;17.10;50.70;;;;;;5112842;28;20223;-62
2023/01/24 10:45:25;;;;;;;3.63;3.33;;;17.10;50.70;;;;;;5115886;28;20201;-62
2023/01/24 10:47:59;;;;;;;3.88;3.58;;;17.10;50.70;;;;;;5116681;28;20255;-62
2023/01/24 10:50:32;;;;;;;3.83;3.50;;;17.10;50.70;;;;;;5083628;28;20173;-63
2023/01/24 10:52:57;;;;;;;4.07;3.78;;;16.90;50.70;;;;;;5098967;28;20564;-62
2023/01/24 10:55:34;;;;;;;3.55;3.30;;;16.90;50.80;;;;;;5081681;28;20206;-62
2023/01/24 10:58:00;;;;;;;3.88;3.58;;;16.90;50.90;;;;;;5116098;28;20177;-62
2023/01/24 11:00:33;;;;;;;3.45;3.17;;;17.00;50.90;;;;;;5098485;28;20234;-62
2023/01/24 11:03:19;;;;;;;3.97;3.58;;;17.00;50.80;;;;;;5116877;28;20172;-62
2023/01/24 11:05:48;;;;;;;4.18;3.83;;;17.00;50.80;;;;;;5097476;28;20209;-63
2023/01/24 11:08:18;;;;;;;3.47;3.28;;;17.00;50.80;;;;;;5116649;28;20185;-62
2023/01/24 11:10:43;;;;;;;3.80;3.50;;;17.10;50.70;;;;;;5116268;28;20185;-62
2023/01/24 11:13:32;;;;;;;3.40;3.10;;;17.10;50.70;;;;;;5115839;28;20256;-62
2023/01/24 11:16:29;;;;;;;4.07;3.78;;;17.10;50.60;;;;;;5099701;28;20180;-62
2023/01/24 11:19:00;;;;;;;3.63;3.33;;;17.10;50.60;;;;;;5090502;28;20561;-62
2023/01/24 11:21:26;;;;;;;3.60;3.30;;;17.00;50.70;;;;;;5116170;28;20184;-62
2023/01/24 11:24:04;;;;;;;3.90;3.60;;;17.00;50.70;;;;;;5098251;28;20176;-62
2023/01/24 11:26:31;;;;;;;3.60;3.30;;;17.00;50.80;;;;;;5097375;28;20679;-62
2023/01/24 11:29:02;;;;;;;3.50;3.20;;;17.00;50.80;;;;;;5116218;28;20177;-62
2023/01/24 11:31:35;;;;;;;3.70;3.45;;;17.00;50.80;;;;;;5116474;28;20176;-62
2023/01/24 11:34:29;;;;;;;3.67;3.38;;;17.00;50.90;;;;;;5097932;28;20180;-62
2023/01/24 11:37:08;;;;;;;3.60;3.30;;;17.10;50.80;;;;;;5115705;28;20181;-62
2023/01/24 11:39:47;;;;;;;3.67;3.38;;;17.10;50.70;;;;;;5098161;28;20177;-62
2023/01/24 11:42:33;;;;;;;3.92;3.63;;;17.10;50.70;;;;;;5097153;28;20199;-62
2023/01/24 11:45:04;;;;;;;3.30;3.10;;;17.10;50.60;;;;;;5116343;28;20239;-62
2023/01/24 11:47:53;;;;;;;3.88;3.58;;;17.10;50.70;;;;;;5097013;28;20290;-62
2023/01/24 11:50:28;;;;;;;3.50;3.20;;;17.00;50.70;;;;;;5090046;28;20181;-62
2023/01/24 11:53:18;;;;;;;3.80;3.50;;;17.00;50.80;;;;;;5115645;28;20268;-62
2023/01/24 11:56:03;;;;;;;3.50;3.20;;;17.00;50.90;;;;;;5114475;28;20547;-62
2023/01/24 11:58:43;;;;;;;3.55;3.33;;;17.00;50.90;;;;;;5115842;28;20225;-62
2023/01/24 12:01:20;;;;;;;3.70;3.40;;;17.00;50.90;;;;;;5098162;28;20166;-62
2023/01/24 12:04:15;;;;;;;3.80;3.50;;;17.00;50.80;;;;;;5098806;28;20176;-63
2023/01/24 12:06:53;;;;;;;3.40;3.20;;;17.10;50.80;;;;;;5115254;28;20743;-63
2023/01/24 12:09:23;;;;;;;3.55;3.25;;;17.10;50.70;;;;;;5114852;28;20208;-62
2023/01/24 12:12:14;;;;;;;3.80;3.50;;;17.10;50.70;;;;;;5097415;28;20204;-62
2023/01/24 12:14:48;;;;;;;3.05;2.85;;;17.10;50.60;;;;;;5096820;28;20538;-63
2023/01/24 12:17:25;;;;;;;3.63;3.33;;;17.10;50.70;;;;;;5114473;28;20314;-62
2023/01/24 12:20:21;;;;;;;3.60;3.30;;;17.00;50.70;;;;;;5097003;28;20222;-63
2023/01/24 12:22:46;;;;;;;3.33;3.13;;;17.00;50.70;;;;;;5098993;28;20305;-62
2023/01/24 12:25:20;;;;;;;3.42;3.15;;;16.90;50.80;;;;;;5097021;28;20296;-62
2023/01/24 12:27:46;;;;;;;3.72;3.42;;;17.00;50.80;;;;;;5114809;28;20177;-62
2023/01/24 12:30:28;;;;;;;3.58;3.30;;;17.00;50.80;;;;;;5079329;28;20169;-62
2023/01/24 12:33:31;;;;;;;3.55;3.25;;;17.00;50.70;;;;;;5114524;28;20658;-63
2023/01/24 12:36:04;;;;;;;3.45;3.15;;;17.10;50.70;;;;;;5068086;28;20181;-62
2023/01/24 12:38:41;;;;;;;3.35;3.15;;;17.10;50.70;;;;;;5095937;28;20173;-62
2023/01/24 12:41:29;;;;;;;3.08;2.88;;;17.10;50.60;;;;;;5097640;28;20169;-62
2023/01/24 12:44:00;;;;;;;3.60;3.30;;;17.10;50.60;;;;;;5096479;28;20298;-62
2023/01/24 12:46:31;;;;;;;3.25;3.05;;;17.10;50.60;;;;;;5080103;28;20574;-62
2023/01/24 12:49:32;;;;;;;3.67;3.38;;;17.00;50.70;;;;;;5096474;28;20173;-62
2023/01/24 12:52:06;;;;;;;3.65;3.35;;;17.00;50.70;;;;;;5027913;28;20181;-62
2023/01/24 12:54:50;;;;;;;3.35;3.10;;;17.00;50.80;;;;;;5080523;28;20165;-62
2023/01/24 12:57:27;;;;;;;3.30;3.03;;;17.00;50.80;;;;;;5081022;28;20252;-62
2023/01/24 12:59:53;;;;;;;3.15;2.95;;;17.00;50.80;;;;;;5114050;28;20173;-62
2023/01/24 13:03:04;;;;;;;3.03;2.83;;;17.00;50.80;;;;;;5114331;28;20616;-62
2023/01/24 13:06:15;;;;;;;3.45;3.15;;;17.10;50.80;;;;;;5075161;28;20213;-63
2023/01/24 13:09:02;;;;;;;2.95;2.75;;;17.10;50.80;;;;;;5031288;28;20211;-62
2023/01/24 13:11:29;;;;;;;3.45;3.15;;;17.10;50.70;;;;;;5031724;28;20214;-63
2023/01/24 13:14:01;;;;;;;3.05;2.85;;;17.10;50.70;;;;;;5080841;28;20192;-62
2023/01/24 13:16:45;;;;;;;3.50;3.20;;;17.10;50.70;;;;;;5095982;28;20217;-63
2023/01/24 13:19:32;;;;;;;3.20;2.95;;;17.00;50.70;;;;;;5113386;28;20635;-62
2023/01/24 13:22:26;;;;;;;3.28;3.08;;;17.00;50.80;;;;;;5081073;28;20180;-62
2023/01/24 13:25:01;;;;;;;3.42;3.13;;;17.00;50.90;;;;;;5113793;28;20181;-62
2023/01/24 13:27:39;;;;;;;3.10;2.90;;;17.00;50.90;;;;;;5113420;28;20214;-62
2023/01/24 13:30:25;;;;;;;3.33;3.10;;;17.00;50.90;;;;;;5095905;28;20169;-63
2023/01/24 13:32:51;;;;;;;3.13;2.83;;;17.00;50.90;;;;;;5113096;28;20188;-62
2023/01/24 13:35:18;;;;;;;3.00;2.80;;;17.10;50.90;;;;;;5095106;28;20173;-62
2023/01/24 13:37:56;;;;;;;3.10;2.90;;;17.10;50.80;;;;;;5095175;28;20260;-62
2023/01/24 13:40:29;;;;;;;3.42;3.13;;;17.10;50.70;;;;;;5094953;28;20233;-62
2023/01/24 13:42:55;;;;;;;2.92;2.72;;;17.10;50.70;;;;;;5095537;28;20173;-62
2023/01/24 13:45:30;;;;;;;3.08;2.88;;;17.10;50.70;;;;;;5095352;28;20555;-62